createdAt,value
2023-04-27T00:00:45.727Z,3189.00
2023-04-27T00:01:45.726Z,3186.00
2023-04-27T00:02:45.866Z,3181.00
2023-04-27T00:03:45.855Z,3190.00
2023-04-27T00:04:45.826Z,3182.00
2023-04-27T00:05:45.728Z,3183.00
2023-04-27T00:06:45.755Z,3179.00
2023-04-27T00:07:45.697Z,3186.00
2023-04-27T00:08:45.680Z,3167.00
2023-04-27T00:09:45.704Z,3168.00
2023-04-27T00:10:45.708Z,3159.00
2023-04-27T00:11:45.676Z,3174.00
2023-04-27T00:12:45.700Z,3158.00
2023-04-27T00:13:45.721Z,3160.00
2023-04-27T00:14:45.718Z,3155.00
2023-04-27T00:15:45.737Z,3148.00
2023-04-27T00:16:45.765Z,3156.00
2023-04-27T00:17:45.753Z,3157.00
2023-04-27T00:18:45.706Z,3143.00
2023-04-27T00:19:45.774Z,3151.00
2023-04-27T00:20:45.690Z,3158.00
2023-04-27T00:21:45.709Z,3151.00
2023-04-27T00:22:45.725Z,3139.00
2023-04-27T00:23:45.752Z,3128.00
2023-04-27T00:24:45.764Z,3142.00
2023-04-27T00:25:45.731Z,3127.00
2023-04-27T00:26:45.808Z,3136.00
2023-04-27T00:27:45.704Z,3140.00
2023-04-27T00:28:45.754Z,3128.00
2023-04-27T00:29:45.706Z,3135.00
2023-04-27T00:30:45.780Z,3133.00
2023-04-27T00:31:45.810Z,3129.00
2023-04-27T00:32:45.825Z,3129.00
2023-04-27T00:33:45.716Z,3113.00
2023-04-27T00:34:45.918Z,3116.00
2023-04-27T00:35:45.754Z,3125.00
2023-04-27T00:36:45.722Z,3130.00
2023-04-27T00:37:45.750Z,3128.00
2023-04-27T00:38:45.718Z,3110.00
2023-04-27T00:39:45.759Z,3109.00
2023-04-27T00:40:45.762Z,3104.00
2023-04-27T00:41:45.741Z,3092.00
2023-04-27T00:42:45.764Z,3097.00
2023-04-27T00:43:45.796Z,3102.00
2023-04-27T00:44:45.777Z,3091.00
2023-04-27T00:45:45.786Z,3098.00
2023-04-27T00:46:45.721Z,3095.00
2023-04-27T00:47:45.821Z,3091.00
2023-04-27T00:48:45.737Z,3097.00
2023-04-27T00:49:45.727Z,3101.00
2023-04-27T00:50:45.738Z,3099.00
2023-04-27T00:51:45.711Z,3080.00
2023-04-27T00:52:45.757Z,3086.00
2023-04-27T00:53:45.720Z,3089.00
2023-04-27T00:54:45.749Z,3089.00
2023-04-27T00:55:45.712Z,3089.00
2023-04-27T00:56:45.785Z,3082.00
2023-04-27T00:57:45.726Z,3085.00
2023-04-27T00:58:45.720Z,3085.00
2023-04-27T00:59:45.755Z,3067.00
2023-04-27T01:00:45.754Z,3048.00
2023-04-27T01:01:45.789Z,3073.00
2023-04-27T01:02:45.875Z,3057.00
2023-04-27T01:03:45.918Z,3071.00
2023-04-27T01:04:45.728Z,3053.00
2023-04-27T01:05:45.717Z,3061.00
2023-04-27T01:06:45.726Z,3063.00
2023-04-27T01:07:45.717Z,3054.00
2023-04-27T01:08:45.783Z,3051.00
2023-04-27T01:09:45.764Z,3045.00
2023-04-27T01:10:45.697Z,3046.00
2023-04-27T01:11:45.701Z,3045.00
2023-04-27T01:12:45.773Z,3043.00
2023-04-27T01:13:45.707Z,3034.00
2023-04-27T01:14:45.919Z,3032.00
2023-04-27T01:15:45.734Z,3024.00
2023-04-27T01:16:45.791Z,3039.00
2023-04-27T01:17:45.767Z,3044.00
2023-04-27T01:18:45.704Z,3039.00
2023-04-27T01:19:45.747Z,3031.00
2023-04-27T01:20:45.713Z,3029.00
2023-04-27T01:21:45.704Z,3033.00
2023-04-27T01:22:45.714Z,3019.00
2023-04-27T01:23:45.713Z,3017.00
2023-04-27T01:24:45.779Z,3010.00
2023-04-27T01:25:45.739Z,3019.00
2023-04-27T01:26:45.704Z,3023.00
2023-04-27T01:27:45.720Z,3002.00
2023-04-27T01:28:45.744Z,3008.00
2023-04-27T01:29:45.787Z,3003.00
2023-04-27T01:30:45.736Z,3002.00
2023-04-27T01:31:45.818Z,3005.00
2023-04-27T01:32:45.818Z,3002.00
2023-04-27T01:33:45.736Z,2987.00
2023-04-27T01:34:45.704Z,2991.00
2023-04-27T01:35:45.720Z,3000.00
2023-04-27T01:36:45.811Z,3011.00
2023-04-27T01:37:45.780Z,2991.00
2023-04-27T01:38:45.727Z,2994.00
2023-04-27T01:39:45.750Z,2985.00
2023-04-27T01:40:45.728Z,3003.00
2023-04-27T01:41:45.749Z,2985.00
2023-04-27T01:42:45.754Z,2982.00
2023-04-27T01:43:45.743Z,2973.00
2023-04-27T01:44:45.792Z,2975.00
2023-04-27T01:45:45.760Z,2978.00
2023-04-27T01:46:45.811Z,2989.00
2023-04-27T01:47:45.776Z,2974.00
2023-04-27T01:48:45.751Z,2985.00
2023-04-27T01:49:45.785Z,2974.00
2023-04-27T01:50:45.754Z,2973.00
2023-04-27T01:51:45.748Z,2965.00
2023-04-27T01:52:45.769Z,2956.00
2023-04-27T01:53:45.761Z,2960.00
2023-04-27T01:54:45.784Z,2960.00
2023-04-27T01:55:45.725Z,2964.00
2023-04-27T01:56:45.740Z,2965.00
2023-04-27T01:57:45.731Z,2951.00
2023-04-27T01:58:45.723Z,2937.00
2023-04-27T01:59:45.716Z,2953.00
2023-04-27T02:00:45.740Z,2950.00
2023-04-27T02:01:45.779Z,2936.00
2023-04-27T02:02:45.817Z,2948.00
2023-04-27T02:03:45.885Z,2945.00
2023-04-27T02:04:45.826Z,2942.00
2023-04-27T02:05:45.734Z,2932.00
2023-04-27T02:06:45.749Z,2950.00
2023-04-27T02:07:45.736Z,2928.00
2023-04-27T02:08:45.733Z,2929.00
2023-04-27T02:09:45.729Z,2926.00
2023-04-27T02:10:45.738Z,2933.00
2023-04-27T02:11:45.790Z,2927.00
2023-04-27T02:12:45.732Z,2922.00
2023-04-27T02:13:45.746Z,2913.00
2023-04-27T02:14:45.775Z,2924.00
2023-04-27T02:15:45.768Z,2905.00
2023-04-27T02:16:45.749Z,2921.00
2023-04-27T02:17:45.818Z,2909.00
2023-04-27T02:18:45.737Z,2916.00
2023-04-27T02:19:45.738Z,2918.00
2023-04-27T02:20:45.753Z,2915.00
2023-04-27T02:21:45.713Z,2906.00
2023-04-27T02:22:45.777Z,2910.00
2023-04-27T02:23:45.743Z,2900.00
2023-04-27T02:24:45.750Z,2913.00
2023-04-27T02:25:45.746Z,2909.00
2023-04-27T02:27:45.712Z,2892.00
2023-04-27T02:28:45.741Z,2897.00
2023-04-27T02:29:45.767Z,2896.00
2023-04-27T02:30:45.722Z,2894.00
2023-04-27T02:31:45.773Z,2886.00
2023-04-27T02:32:45.788Z,2891.00
2023-04-27T02:33:45.706Z,2892.00
2023-04-27T02:34:45.749Z,2887.00
2023-04-27T02:35:45.719Z,2882.00
2023-04-27T02:36:45.743Z,2885.00
2023-04-27T02:37:45.760Z,2894.00
2023-04-27T02:38:45.728Z,2892.00
2023-04-27T02:39:45.731Z,2880.00
2023-04-27T02:40:45.703Z,2877.00
2023-04-27T02:41:45.727Z,2884.00
2023-04-27T02:42:45.697Z,2886.00
2023-04-27T02:43:45.707Z,2887.00
2023-04-27T02:44:45.732Z,2865.00
2023-04-27T02:45:45.703Z,2862.00
2023-04-27T02:46:45.780Z,2856.00
2023-04-27T02:47:45.730Z,2853.00
2023-04-27T02:48:45.658Z,2845.00
2023-04-27T02:49:45.679Z,2852.00
2023-04-27T02:50:45.673Z,2865.00
2023-04-27T02:51:45.659Z,2858.00
2023-04-27T02:52:45.681Z,2839.00
2023-04-27T02:53:45.693Z,2844.00
2023-04-27T02:54:45.670Z,2840.00
2023-04-27T02:55:45.684Z,2839.00
2023-04-27T02:56:45.683Z,2839.00
2023-04-27T02:57:45.716Z,2833.00
2023-04-27T02:58:45.679Z,2842.00
2023-04-27T02:59:45.687Z,2835.00
2023-04-27T03:00:45.795Z,2821.00
2023-04-27T03:01:45.774Z,2835.00
2023-04-27T03:02:45.841Z,2824.00
2023-04-27T03:03:45.765Z,2830.00
2023-04-27T03:04:45.845Z,2830.00
2023-04-27T03:05:45.660Z,2828.00
2023-04-27T03:06:45.670Z,2816.00
2023-04-27T03:07:46.034Z,2815.00
2023-04-27T03:08:45.688Z,2828.00
2023-04-27T03:09:45.636Z,2824.00
2023-04-27T03:10:45.642Z,2811.00
2023-04-27T03:11:45.680Z,2810.00
2023-04-27T03:12:45.633Z,2813.00
2023-04-27T03:13:45.639Z,2813.00
2023-04-27T03:14:45.684Z,2796.00
2023-04-27T03:15:45.644Z,2810.00
2023-04-27T03:16:45.695Z,2799.00
2023-04-27T03:17:45.689Z,2804.00
2023-04-27T03:18:45.648Z,2790.00
2023-04-27T03:19:45.664Z,2800.00
2023-04-27T03:20:45.677Z,2803.00
2023-04-27T03:21:45.646Z,2793.00
2023-04-27T03:22:45.652Z,2785.00
2023-04-27T03:23:45.624Z,2782.00
2023-04-27T03:24:45.645Z,2788.00
2023-04-27T03:25:45.637Z,2802.00
2023-04-27T03:26:45.617Z,2791.00
2023-04-27T03:27:45.662Z,2782.00
2023-04-27T03:28:45.625Z,2788.00
2023-04-27T03:29:45.620Z,2779.00
2023-04-27T03:30:45.594Z,2776.00
2023-04-27T03:31:45.685Z,2777.00
2023-04-27T03:32:47.574Z,2775.00
2023-04-27T03:33:45.615Z,2775.00
2023-04-27T03:34:45.636Z,2778.00
2023-04-27T03:35:45.618Z,2769.00
2023-04-27T03:36:45.620Z,2769.00
2023-04-27T03:37:45.588Z,2770.00
2023-04-27T03:38:45.613Z,2774.00
2023-04-27T03:39:45.680Z,2767.00
2023-04-27T03:40:45.644Z,2764.00
2023-04-27T03:41:45.620Z,2761.00
2023-04-27T03:42:45.588Z,2756.00
2023-04-27T03:43:45.579Z,2762.00
2023-04-27T03:44:45.623Z,2743.00
2023-04-27T03:45:45.608Z,2753.00
2023-04-27T03:46:45.574Z,2769.00
2023-04-27T03:47:46.036Z,2745.00
2023-04-27T03:48:45.593Z,2746.00
2023-04-27T03:49:45.613Z,2762.00
2023-04-27T03:50:45.626Z,2739.00
2023-04-27T03:51:45.578Z,2748.00
2023-04-27T03:52:45.586Z,2756.00
2023-04-27T03:53:45.575Z,2738.00
2023-04-27T03:54:45.596Z,2737.00
2023-04-27T03:55:45.652Z,2731.00
2023-04-27T03:56:45.561Z,2741.00
2023-04-27T03:57:45.612Z,2728.00
2023-04-27T03:58:45.554Z,2729.00
2023-04-27T03:59:45.592Z,2719.00
2023-04-27T04:00:45.620Z,2725.00
2023-04-27T04:01:45.596Z,2712.00
2023-04-27T04:02:45.667Z,2728.00
2023-04-27T04:03:45.669Z,2723.00
2023-04-27T04:04:45.659Z,2719.00
2023-04-27T04:05:45.603Z,2722.00
2023-04-27T04:06:45.564Z,2705.00
2023-04-27T04:07:45.543Z,2720.00
2023-04-27T04:08:45.561Z,2711.00
2023-04-27T04:09:45.555Z,2716.00
2023-04-27T04:10:46.414Z,2702.00
2023-04-27T04:11:45.562Z,2712.00
2023-04-27T04:12:45.549Z,2700.00
2023-04-27T04:13:45.542Z,2708.00
2023-04-27T04:14:45.519Z,2695.00
2023-04-27T04:15:45.564Z,2691.00
2023-04-27T04:16:45.523Z,2697.00
2023-04-27T04:17:45.549Z,2687.00
2023-04-27T04:18:45.586Z,2703.00
2023-04-27T04:19:45.524Z,2699.00
2023-04-27T04:20:45.932Z,2702.00
2023-04-27T04:21:45.525Z,2690.00
2023-04-27T04:22:45.543Z,2692.00
2023-04-27T04:23:45.527Z,2686.00
2023-04-27T04:24:45.539Z,2695.00
2023-04-27T04:25:45.534Z,2688.00
2023-04-27T04:26:45.539Z,2682.00
2023-04-27T04:27:46.427Z,2682.00
2023-04-27T04:28:45.508Z,2670.00
2023-04-27T04:29:45.521Z,2677.00
2023-04-27T04:30:45.536Z,2674.00
2023-04-27T04:31:45.580Z,2664.00
2023-04-27T04:32:45.589Z,2679.00
2023-04-27T04:33:45.509Z,2671.00
2023-04-27T04:34:45.481Z,2664.00
2023-04-27T04:35:45.503Z,2661.00
2023-04-27T04:36:45.493Z,2653.00
2023-04-27T04:37:45.531Z,2648.00
2023-04-27T04:38:45.482Z,2655.00
2023-04-27T04:39:45.517Z,2670.00
2023-04-27T04:40:46.126Z,2654.00
2023-04-27T04:41:45.512Z,2653.00
2023-04-27T04:42:45.520Z,2643.00
2023-04-27T04:43:45.464Z,2658.00
2023-04-27T04:44:45.510Z,2644.00
2023-04-27T04:45:45.480Z,2651.00
2023-04-27T04:46:45.488Z,2631.00
2023-04-27T04:47:45.531Z,2651.00
2023-04-27T04:48:45.464Z,2643.00
2023-04-27T04:49:45.505Z,2642.00
2023-04-27T04:50:45.954Z,2640.00
2023-04-27T04:51:45.470Z,2632.00
2023-04-27T04:52:45.470Z,2643.00
2023-04-27T04:53:45.457Z,2636.00
2023-04-27T04:54:45.444Z,2633.00
2023-04-27T04:55:45.463Z,2638.00
2023-04-27T04:56:45.464Z,2613.00
2023-04-27T04:57:45.505Z,2616.00
2023-04-27T04:58:45.442Z,2629.00
2023-04-27T04:59:45.448Z,2624.00
2023-04-27T05:00:45.433Z,2615.00
2023-04-27T05:01:45.485Z,2623.00
2023-04-27T05:02:45.511Z,2612.00
2023-04-27T05:03:45.545Z,2629.00
2023-04-27T05:04:45.561Z,2614.00
2023-04-27T05:05:45.445Z,2614.00
2023-04-27T05:06:45.441Z,2604.00
2023-04-27T05:07:45.470Z,2607.00
2023-04-27T05:08:45.450Z,2610.00
2023-04-27T05:09:45.459Z,2616.00
2023-04-27T05:10:45.991Z,2596.00
2023-04-27T05:11:45.441Z,2603.00
2023-04-27T05:12:45.435Z,2597.00
2023-04-27T05:13:45.490Z,2608.00
2023-04-27T05:14:45.429Z,2591.00
2023-04-27T05:15:45.471Z,2608.00
2023-04-27T05:16:45.424Z,2592.00
2023-04-27T05:17:45.501Z,2598.00
2023-04-27T05:18:45.457Z,2584.00
2023-04-27T05:19:45.436Z,2596.00
2023-04-27T05:20:45.462Z,2596.00
2023-04-27T05:21:45.477Z,2578.00
2023-04-27T05:22:45.449Z,2594.00
2023-04-27T05:23:45.500Z,2574.00
2023-04-27T05:24:45.468Z,2578.00
2023-04-27T05:25:45.445Z,2584.00
2023-04-27T05:26:45.482Z,2571.00
2023-04-27T05:27:45.544Z,2578.00
2023-04-27T05:28:45.435Z,2566.00
2023-04-27T05:29:45.553Z,2581.00
2023-04-27T05:30:45.446Z,2579.00
2023-04-27T05:31:45.543Z,2579.00
2023-04-27T05:32:45.469Z,2573.00
2023-04-27T05:33:45.455Z,2561.00
2023-04-27T05:34:47.337Z,2569.00
2023-04-27T05:35:45.404Z,2608.00
2023-04-27T05:36:45.406Z,2596.00
2023-04-27T05:37:45.421Z,2595.00
2023-04-27T05:38:45.401Z,2582.00
2023-04-27T05:39:45.381Z,2584.00
2023-04-27T05:40:45.493Z,2593.00
2023-04-27T05:41:45.424Z,2603.00
2023-04-27T05:42:45.674Z,2616.00
2023-04-27T05:43:45.351Z,2627.00
2023-04-27T05:44:45.359Z,2626.00
2023-04-27T05:45:45.364Z,2666.00
2023-04-27T05:46:45.354Z,2702.00
2023-04-27T05:47:45.355Z,2725.00
2023-04-27T05:48:45.375Z,2760.00
2023-04-27T05:49:45.357Z,2861.00
2023-04-27T05:50:45.340Z,2896.00
2023-04-27T05:51:45.305Z,3128.00
2023-04-27T05:52:47.005Z,3193.00
2023-04-27T05:53:45.321Z,3021.00
2023-04-27T05:54:45.275Z,2868.00
2023-04-27T05:55:45.269Z,2605.00
2023-04-27T05:56:45.376Z,2474.00
2023-04-27T05:57:47.701Z,2320.00
2023-04-27T05:58:45.275Z,2314.00
2023-04-27T05:59:45.346Z,2272.00
2023-04-27T06:00:45.248Z,2189.00
2023-04-27T06:01:45.266Z,2183.00
2023-04-27T06:02:45.400Z,2146.00
2023-04-27T06:03:45.581Z,2159.00
2023-04-27T06:04:45.276Z,2202.00
2023-04-27T06:05:45.282Z,2195.00
2023-04-27T06:06:45.202Z,2193.00
2023-04-27T06:07:45.206Z,2155.00
2023-04-27T06:08:45.219Z,2153.00
2023-04-27T06:09:45.179Z,2138.00
2023-04-27T06:10:45.249Z,2150.00
2023-04-27T06:11:45.159Z,2134.00
2023-04-27T06:12:46.393Z,2104.00
2023-04-27T06:13:45.148Z,2121.00
2023-04-27T06:14:45.142Z,2137.00
2023-04-27T06:15:45.238Z,2119.00
2023-04-27T06:16:45.195Z,2137.00
2023-04-27T06:17:45.154Z,2129.00
2023-04-27T06:18:45.138Z,2126.00
2023-04-27T06:19:45.181Z,2203.00
2023-04-27T06:20:45.547Z,2245.00
2023-04-27T06:21:45.134Z,2261.00
2023-04-27T06:22:45.103Z,2285.00
2023-04-27T06:23:45.100Z,2319.00
2023-04-27T06:24:45.102Z,2372.00
2023-04-27T06:25:45.163Z,2395.00
2023-04-27T06:26:45.082Z,2438.00
2023-04-27T06:27:45.096Z,2484.00
2023-04-27T06:28:45.075Z,2522.00
2023-04-27T06:29:45.059Z,2531.00
2023-04-27T06:30:45.054Z,2565.00
2023-04-27T06:31:45.118Z,2610.00
2023-04-27T06:32:45.107Z,2641.00
2023-04-27T06:33:45.054Z,2661.00
2023-04-27T06:34:45.088Z,2681.00
2023-04-27T06:35:47.054Z,2687.00
2023-04-27T06:36:45.246Z,2710.00
2023-04-27T06:37:45.498Z,2751.00
2023-04-27T06:38:45.139Z,2731.00
2023-04-27T06:39:46.743Z,2681.00
2023-04-27T06:40:45.221Z,2696.00
2023-04-27T06:41:45.231Z,2687.00
2023-04-27T06:42:45.536Z,2698.00
2023-04-27T06:43:45.271Z,2704.00
2023-04-27T06:44:45.295Z,2733.00
2023-04-27T06:45:45.300Z,2759.00
2023-04-27T06:46:45.310Z,2774.00
2023-04-27T06:47:45.346Z,2786.00
2023-04-27T06:48:45.311Z,2794.00
2023-04-27T06:49:45.309Z,2803.00
2023-04-27T06:50:45.490Z,2808.00
2023-04-27T06:51:45.349Z,2811.00
2023-04-27T06:52:45.341Z,2841.00
2023-04-27T06:53:45.322Z,2852.00
2023-04-27T06:54:45.380Z,2864.00
2023-04-27T06:55:46.920Z,2873.00
2023-04-27T06:56:45.313Z,2912.00
2023-04-27T06:57:45.306Z,2903.00
2023-04-27T06:58:45.310Z,2924.00
2023-04-27T06:59:45.286Z,2935.00
2023-04-27T07:00:45.303Z,2917.00
2023-04-27T07:01:45.288Z,2906.00
2023-04-27T07:02:45.436Z,2934.00
2023-04-27T07:03:45.390Z,2969.00
2023-04-27T07:04:45.347Z,2986.00
2023-04-27T07:05:45.327Z,2974.00
2023-04-27T07:06:45.245Z,3002.00
2023-04-27T07:07:45.611Z,3017.00
2023-04-27T07:08:45.300Z,3027.00
2023-04-27T07:09:45.230Z,3032.00
2023-04-27T07:10:45.214Z,3037.00
2023-04-27T07:11:45.211Z,3047.00
2023-04-27T07:12:45.213Z,3074.00
2023-04-27T07:13:45.538Z,3074.00
2023-04-27T07:14:45.211Z,3095.00
2023-04-27T07:15:45.249Z,3095.00
2023-04-27T07:16:45.195Z,3102.00
2023-04-27T07:17:45.273Z,3115.00
2023-04-27T07:18:45.482Z,3141.00
2023-04-27T07:19:45.203Z,3143.00
2023-04-27T07:20:45.189Z,3150.00
2023-04-27T07:21:45.240Z,3157.00
2023-04-27T07:22:45.187Z,3210.00
2023-04-27T07:23:45.161Z,3220.00
2023-04-27T07:24:45.135Z,3212.00
2023-04-27T07:25:46.095Z,3204.00
2023-04-27T07:26:45.165Z,3220.00
2023-04-27T07:27:45.137Z,3202.00
2023-04-27T07:28:45.189Z,3235.00
2023-04-27T07:29:45.135Z,3252.00
2023-04-27T07:30:45.186Z,3216.00
2023-04-27T07:31:45.124Z,3194.00
2023-04-27T07:32:46.056Z,3239.00
2023-04-27T07:33:45.145Z,3184.00
2023-04-27T07:34:53.653Z,3193.00
2023-04-27T07:35:46.502Z,3191.00
2023-04-27T07:36:45.129Z,3081.00
2023-04-27T07:37:45.222Z,3127.00
2023-04-27T07:38:45.510Z,3138.00
2023-04-27T07:39:45.094Z,3197.00
2023-04-27T07:40:46.066Z,3154.00
2023-04-27T07:41:45.112Z,3115.00
2023-04-27T07:42:45.067Z,3070.00
2023-04-27T07:43:45.034Z,3010.00
2023-04-27T07:44:45.049Z,3009.00
2023-04-27T07:45:45.181Z,3006.00
2023-04-27T07:46:45.135Z,2980.00
2023-04-27T07:47:45.220Z,2985.00
2023-04-27T07:48:47.025Z,2976.00
2023-04-27T07:49:45.211Z,2963.00
2023-04-27T07:50:45.504Z,2957.00
2023-04-27T07:51:45.185Z,2943.00
2023-04-27T07:52:45.236Z,2932.00
2023-04-27T07:53:47.257Z,2932.00
2023-04-27T07:54:45.289Z,2929.00
2023-04-27T07:55:45.514Z,2915.00
2023-04-27T07:56:45.395Z,2909.00
2023-04-27T07:57:45.296Z,2891.00
2023-04-27T07:58:45.350Z,2873.00
2023-04-27T07:59:45.410Z,2876.00
2023-04-27T08:00:45.382Z,2867.00
2023-04-27T08:01:45.415Z,2853.00
2023-04-27T08:02:46.289Z,2850.00
2023-04-27T08:03:45.755Z,2831.00
2023-04-27T08:04:45.567Z,2832.00
2023-04-27T08:05:45.600Z,2828.00
2023-04-27T08:06:45.904Z,2820.00
2023-04-27T08:07:45.845Z,2820.00
2023-04-27T08:08:45.429Z,2818.00
2023-04-27T08:09:45.498Z,2806.00
2023-04-27T08:10:45.491Z,2805.00
2023-04-27T08:11:45.525Z,2787.00
2023-04-27T08:12:45.529Z,2796.00
2023-04-27T08:13:45.579Z,2768.00
2023-04-27T08:14:45.592Z,2772.00
2023-04-27T08:15:45.649Z,2770.00
2023-04-27T08:16:45.681Z,2771.00
2023-04-27T08:17:45.687Z,2751.00
2023-04-27T08:18:45.715Z,2764.00
2023-04-27T08:19:45.732Z,2759.00
2023-04-27T08:20:45.770Z,2739.00
2023-04-27T08:21:45.930Z,2741.00
2023-04-27T08:22:45.820Z,2757.00
2023-04-27T08:23:45.862Z,2786.00
2023-04-27T08:24:45.850Z,2759.00
2023-04-27T08:25:45.986Z,2760.00
2023-04-27T08:26:45.898Z,2789.00
2023-04-27T08:27:46.014Z,2791.00
2023-04-27T08:28:46.039Z,2793.00
2023-04-27T08:29:45.942Z,2761.00
2023-04-27T08:30:46.005Z,2745.00
2023-04-27T08:31:45.997Z,2744.00
2023-04-27T08:32:46.123Z,2739.00
2023-04-27T08:33:46.012Z,2733.00
2023-04-27T08:34:46.020Z,2733.00
2023-04-27T08:35:46.583Z,2725.00
2023-04-27T08:36:46.065Z,2718.00
2023-04-27T08:37:46.067Z,2717.00
2023-04-27T08:38:46.636Z,2712.00
2023-04-27T08:39:46.105Z,2695.00
2023-04-27T08:40:46.143Z,2697.00
2023-04-27T08:41:46.237Z,2684.00
2023-04-27T08:42:46.148Z,2710.00
2023-04-27T08:43:46.166Z,2667.00
2023-04-27T08:44:46.218Z,2629.00
2023-04-27T08:45:46.235Z,2543.00
2023-04-27T08:46:46.327Z,2568.00
2023-04-27T08:47:46.254Z,2546.00
2023-04-27T08:48:46.306Z,2558.00
2023-04-27T08:49:46.253Z,2559.00
2023-04-27T08:50:46.284Z,2559.00
2023-04-27T08:51:46.289Z,2559.00
2023-04-27T08:52:46.314Z,2560.00
2023-04-27T08:53:46.555Z,2551.00
2023-04-27T08:54:46.357Z,2577.00
2023-04-27T08:55:46.364Z,2576.00
2023-04-27T08:56:46.418Z,2577.00
2023-04-27T08:57:46.429Z,2576.00
2023-04-27T08:58:46.416Z,2577.00
2023-04-27T08:59:46.489Z,2584.00
2023-04-27T09:00:46.531Z,2576.00
2023-04-27T09:01:46.537Z,2585.00
2023-04-27T09:02:46.623Z,2582.00
2023-04-27T09:03:46.841Z,2590.00
2023-04-27T09:04:46.610Z,2592.00
2023-04-27T09:05:56.486Z,2593.00
2023-04-27T09:06:47.563Z,2594.00
2023-04-27T09:07:46.497Z,2596.00
2023-04-27T09:08:46.533Z,2590.00
2023-04-27T09:09:46.525Z,2600.00
2023-04-27T09:10:46.493Z,2600.00
2023-04-27T09:11:46.501Z,2595.00
2023-04-27T09:12:46.525Z,2590.00
2023-04-27T09:13:46.475Z,2581.00
2023-04-27T09:14:46.465Z,2590.00
2023-04-27T09:15:48.574Z,2594.00
2023-04-27T09:16:46.630Z,2604.00
2023-04-27T09:17:46.473Z,2593.00
2023-04-27T09:18:46.451Z,2586.00
2023-04-27T09:19:46.439Z,2584.00
2023-04-27T09:20:46.417Z,2580.00
2023-04-27T09:21:47.743Z,2580.00
2023-04-27T09:22:46.421Z,2575.00
2023-04-27T09:23:46.405Z,2575.00
2023-04-27T09:24:46.402Z,2582.00
2023-04-27T09:25:46.395Z,2585.00
2023-04-27T09:26:46.372Z,2578.00
2023-04-27T09:27:46.384Z,2574.00
2023-04-27T09:28:46.382Z,2572.00
2023-04-27T09:29:46.378Z,2571.00
2023-04-27T09:30:46.377Z,2572.00
2023-04-27T09:31:46.430Z,2578.00
2023-04-27T09:32:46.442Z,2566.00
2023-04-27T09:33:46.398Z,2568.00
2023-04-27T09:34:46.433Z,2565.00
2023-04-27T09:35:46.373Z,2562.00
2023-04-27T09:36:46.462Z,2565.00
2023-04-27T09:37:47.385Z,2571.00
2023-04-27T09:38:46.381Z,2560.00
2023-04-27T09:39:46.374Z,2546.00
2023-04-27T09:40:46.356Z,2551.00
2023-04-27T09:41:46.354Z,2552.00
2023-04-27T09:42:46.358Z,2554.00
2023-04-27T09:43:46.351Z,2544.00
2023-04-27T09:44:46.360Z,2549.00
2023-04-27T09:45:46.378Z,2537.00
2023-04-27T09:46:46.375Z,2540.00
2023-04-27T09:47:46.453Z,2548.00
2023-04-27T09:48:46.442Z,2540.00
2023-04-27T09:49:46.468Z,2546.00
2023-04-27T09:50:46.507Z,2533.00
2023-04-27T09:51:46.503Z,2548.00
2023-04-27T09:52:46.527Z,2517.00
2023-04-27T09:53:46.547Z,2535.00
2023-04-27T09:54:46.594Z,2536.00
2023-04-27T09:55:46.613Z,2544.00
2023-04-27T09:56:46.650Z,2518.00
2023-04-27T09:57:46.698Z,2530.00
2023-04-27T09:58:46.752Z,2528.00
2023-04-27T09:59:46.759Z,2526.00
2023-04-27T10:00:46.872Z,2526.00
2023-04-27T10:01:46.923Z,2530.00
2023-04-27T10:02:53.253Z,2528.00
2023-04-27T10:03:48.026Z,2529.00
2023-04-27T10:04:46.952Z,2530.00
2023-04-27T10:05:46.895Z,2522.00
2023-04-27T10:06:46.894Z,2528.00
2023-04-27T10:07:46.918Z,2531.00
2023-04-27T10:08:46.871Z,2527.00
2023-04-27T10:09:46.878Z,2523.00
2023-04-27T10:10:46.841Z,2521.00
2023-04-27T10:11:46.895Z,2523.00
2023-04-27T10:12:47.006Z,2524.00
2023-04-27T10:13:46.976Z,2519.00
2023-04-27T10:14:47.047Z,2511.00
2023-04-27T10:15:47.092Z,2521.00
2023-04-27T10:16:47.263Z,2511.00
2023-04-27T10:17:47.243Z,2505.00
2023-04-27T10:18:47.254Z,2515.00
2023-04-27T10:19:47.293Z,2506.00
2023-04-27T10:20:47.339Z,2512.00
2023-04-27T10:21:47.428Z,2507.00
2023-04-27T10:22:47.442Z,2506.00
2023-04-27T10:23:47.502Z,2504.00
2023-04-27T10:24:47.556Z,2496.00
2023-04-27T10:25:47.569Z,2494.00
2023-04-27T10:26:47.619Z,2508.00
2023-04-27T10:27:47.669Z,2491.00
2023-04-27T10:28:47.740Z,2505.00
2023-04-27T10:29:48.075Z,2506.00
2023-04-27T10:30:47.846Z,2493.00
2023-04-27T10:31:47.859Z,2501.00
2023-04-27T10:32:47.918Z,2497.00
2023-04-27T10:33:47.960Z,2486.00
2023-04-27T10:34:48.089Z,2493.00
2023-04-27T10:35:48.005Z,2487.00
2023-04-27T10:36:48.080Z,2487.00
2023-04-27T10:37:48.098Z,2477.00
2023-04-27T10:38:48.172Z,2486.00
2023-04-27T10:39:49.853Z,2460.00
2023-04-27T10:40:48.221Z,2480.00
2023-04-27T10:41:48.570Z,2481.00
2023-04-27T10:42:48.286Z,2479.00
2023-04-27T10:43:48.318Z,2470.00
2023-04-27T10:44:48.368Z,2460.00
2023-04-27T10:45:48.442Z,2463.00
2023-04-27T10:46:48.399Z,2469.00
2023-04-27T10:47:48.524Z,2466.00
2023-04-27T10:48:48.484Z,2466.00
2023-04-27T10:49:48.520Z,2462.00
2023-04-27T10:50:48.537Z,2457.00
2023-04-27T10:51:48.595Z,2458.00
2023-04-27T10:52:48.589Z,2453.00
2023-04-27T10:53:48.604Z,2453.00
2023-04-27T10:54:48.654Z,2422.00
2023-04-27T10:55:48.654Z,2434.00
2023-04-27T10:56:48.750Z,2441.00
2023-04-27T10:57:48.723Z,2459.00
2023-04-27T10:58:49.604Z,2443.00
2023-04-27T10:59:48.789Z,2456.00
2023-04-27T11:00:48.814Z,2431.00
2023-04-27T11:01:48.862Z,2424.00
2023-04-27T11:02:48.926Z,2400.00
2023-04-27T11:03:49.015Z,2429.00
2023-04-27T11:04:49.085Z,2406.00
2023-04-27T11:05:49.021Z,2431.00
2023-04-27T11:06:49.022Z,2432.00
2023-04-27T11:07:49.010Z,2431.00
2023-04-27T11:08:49.037Z,2372.00
2023-04-27T11:09:49.070Z,2377.00
2023-04-27T11:10:49.230Z,2396.00
2023-04-27T11:11:49.108Z,2394.00
2023-04-27T11:12:49.178Z,2407.00
2023-04-27T11:13:49.171Z,2393.00
2023-04-27T11:14:49.212Z,2416.00
2023-04-27T11:15:49.270Z,2369.00
2023-04-27T11:16:49.347Z,2384.00
2023-04-27T11:17:49.509Z,2420.00
2023-04-27T11:18:49.339Z,2396.00
2023-04-27T11:19:49.403Z,2399.00
2023-04-27T11:20:49.424Z,2374.00
2023-04-27T11:21:50.088Z,2400.00
2023-04-27T11:22:49.487Z,2395.00
2023-04-27T11:23:50.105Z,2394.00
2023-04-27T11:24:50.090Z,2368.00
2023-04-27T11:25:49.622Z,2383.00
2023-04-27T11:26:50.123Z,2374.00
2023-04-27T11:27:50.594Z,2389.00
2023-04-27T11:28:49.692Z,2354.00
2023-04-27T11:29:50.140Z,2377.00
2023-04-27T11:30:49.788Z,2356.00
2023-04-27T11:31:50.114Z,2388.00
2023-04-27T11:32:49.859Z,2357.00
2023-04-27T11:33:49.858Z,2362.00
2023-04-27T11:34:49.898Z,2343.00
2023-04-27T11:35:49.912Z,2371.00
2023-04-27T11:36:49.962Z,2376.00
2023-04-27T11:37:49.982Z,2362.00
2023-04-27T11:38:50.139Z,2335.00
2023-04-27T11:39:50.062Z,2364.00
2023-04-27T11:40:50.073Z,2334.00
2023-04-27T11:41:50.166Z,2362.00
2023-04-27T11:42:50.117Z,2314.00
2023-04-27T11:43:50.132Z,2333.00
2023-04-27T11:44:50.153Z,2371.00
2023-04-27T11:45:50.209Z,2330.00
2023-04-27T11:46:50.322Z,2351.00
2023-04-27T11:47:50.280Z,2334.00
2023-04-27T11:48:50.269Z,2344.00
2023-04-27T11:49:50.303Z,2300.00
2023-04-27T11:50:50.369Z,2332.00
2023-04-27T11:51:50.362Z,2341.00
2023-04-27T11:52:50.425Z,2323.00
2023-04-27T11:53:50.435Z,2337.00
2023-04-27T11:54:50.519Z,2329.00
2023-04-27T11:55:50.467Z,2336.00
2023-04-27T11:56:50.502Z,2346.00
2023-04-27T11:57:50.537Z,2330.00
2023-04-27T11:58:50.556Z,2331.00
2023-04-27T11:59:50.585Z,2314.00
2023-04-27T12:00:50.662Z,2324.00
2023-04-27T12:01:50.661Z,2307.00
2023-04-27T12:02:50.844Z,2296.00
2023-04-27T12:03:50.985Z,2308.00
2023-04-27T12:04:50.919Z,2315.00
2023-04-27T12:05:50.874Z,2300.00
2023-04-27T12:06:50.808Z,2289.00